M\t Procida — IBJT — position and weather

sailwx.info

Track history (hours):
 
Tides and Currents Weather Stations Pressure Air Temp Water Temp Dewpoint Dewpoint Depression Visibility Wind Speed Wind Dir Waves Ship Positions

M\t Procida

Last reported at 2016-May-01 18:33 UTC. Time now 2016-May-01 19:25 UTC.
Position N 57°53' E 006°13'.

Length 149 m; draft 6.5 m.

Type: Tanker. MMSI: 247258400.

Date/timePositionNaut miles runAvg speedWind from/ knotsBaromVisibWave heightAir tempDewpointWater temp
2016-May-01 18:33N 57°53' E 006°13'1211.8
2016-May-01 17:33N 57°60' E 005°56'1212.0
2016-May-01 16:30N 58°08' E 005°38'1111.6
2016-May-01 15:33N 58°15' E 005°22'1211.2
2016-May-01 14:28N 58°24' E 005°06'1111.8
2016-May-01 13:34N 58°32' E 004°52'1111.3
2016-May-01 12:33N 58°40' E 004°37'  
2016-Apr-25 20:32N 56°11' W 001°55'9 9.6
2016-Apr-25 19:34N 56°09' W 002°11'1111.3
2016-Apr-25 18:34N 56°07' W 002°32'1312.7
2016-Apr-25 17:34N 56°05' W 002°54'1111.1
2016-Apr-25 16:33N 56°02' W 003°13'13 9.6
2016-Apr-25 15:13N 56°02' W 003°36'3 2.7
2016-Apr-25 14:11N 56°02' W 003°41'0 0.0
2016-Apr-23 15:17N 56°02' W 003°41'1 1.2
2016-Apr-23 14:21N 56°02' W 003°40'7 9.2
2016-Apr-23 13:32N 56°01' W 003°27'1010.1
2016-Apr-23 12:33N 56°03' W 003°10'2 2.1
2016-Apr-23 11:33N 56°05' W 003°07'0 0.1
2016-Apr-23 10:33N 56°05' W 003°07'0 0.0
2016-Apr-23 09:33N 56°05' W 003°07'0 0.0
2016-Apr-23 08:34N 56°05' W 003°07'0 0.1
2016-Apr-23 07:33N 56°05' W 003°07'0 0.0
2016-Apr-23 06:34N 56°05' W 003°07'7 7.3
2016-Apr-23 05:33N 56°06' W 002°54'1111.4
2016-Apr-23 04:33N 56°07' W 002°33'1211.8
2016-Apr-23 03:33N 56°09' W 002°12'1212.3
2016-Apr-23 02:33N 56°11' W 001°51'  
Track history (hours):
 
Tides and Currents Weather Stations Pressure Air Temp Water Temp Dewpoint Dewpoint Depression Visibility Wind Speed Wind Dir Waves Ship Positions

M\t Procida

Last reported at 2016-May-01 18:33 UTC. Time now 2016-May-01 19:25 UTC.
Position N 57°53' E 006°13'.

Length 149 m; draft 6.5 m.

Type: Tanker. MMSI: 247258400.

Date/timePositionNaut miles runAvg speedWind from/ knotsBaromVisibWave heightAir tempDewpointWater temp
2016-May-01 18:33N 57°53' E 006°13'1211.8
2016-May-01 17:33N 57°60' E 005°56'1212.0
2016-May-01 16:30N 58°08' E 005°38'1111.6
2016-May-01 15:33N 58°15' E 005°22'1211.2
2016-May-01 14:28N 58°24' E 005°06'1111.8
2016-May-01 13:34N 58°32' E 004°52'1111.3
2016-May-01 12:33N 58°40' E 004°37'  
2016-Apr-25 20:32N 56°11' W 001°55'9 9.6
2016-Apr-25 19:34N 56°09' W 002°11'1111.3
2016-Apr-25 18:34N 56°07' W 002°32'1312.7
2016-Apr-25 17:34N 56°05' W 002°54'1111.1
2016-Apr-25 16:33N 56°02' W 003°13'13 9.6
2016-Apr-25 15:13N 56°02' W 003°36'3 2.7
2016-Apr-25 14:11N 56°02' W 003°41'0 0.0
2016-Apr-23 15:17N 56°02' W 003°41'1 1.2
2016-Apr-23 14:21N 56°02' W 003°40'7 9.2
2016-Apr-23 13:32N 56°01' W 003°27'1010.1
2016-Apr-23 12:33N 56°03' W 003°10'2 2.1
2016-Apr-23 11:33N 56°05' W 003°07'0 0.1
2016-Apr-23 10:33N 56°05' W 003°07'0 0.0
2016-Apr-23 09:33N 56°05' W 003°07'0 0.0
2016-Apr-23 08:34N 56°05' W 003°07'0 0.1
2016-Apr-23 07:33N 56°05' W 003°07'0 0.0
2016-Apr-23 06:34N 56°05' W 003°07'7 7.3
2016-Apr-23 05:33N 56°06' W 002°54'1111.4
2016-Apr-23 04:33N 56°07' W 002°33'1211.8
2016-Apr-23 03:33N 56°09' W 002°12'1212.3
2016-Apr-23 02:33N 56°11' W 001°51'  

Dump ship's entire track history